Flag for Greece

Past Weather in 38°22'01.4"N, 20°43'02.5"E, Greece — Yesterday and Last 2 Weeks

Currently: 73 °F. Clear. (Weather station: Aktion Airport, Greece). See more current weather

Past Weather in 38°22'01.4"N, 20°43'02.5"E — Graph

°F

38°22'01.4"N, 20°43'02.5"E Temperature Yesterday

Maximum temperature yesterday: 90 °F (at 11:50 am)
Minimum temperature yesterday: 70 °F (at 4:50 am)
Average temperature yesterday: 82 °F

High & Low Weather Summary for the Past Weeks

 TemperatureHumidityPressure
High91 °F (Jun 27, 12:20 pm)100% (Jun 22, 4:50 am)30.04 "Hg (Jun 22, 4:50 am)
Low64 °F (Jun 20, 1:50 am)31% (Jun 19, 3:50 pm)29.83 "Hg (Jun 24, 5:50 pm)
Average80 °F69%29.94 "Hg
* Reported Jun 14 4:50 am — Jun 29 1:50 am, 38°22'01.4"N, 20°43'02.5"E. Weather by CustomWeather, © 2022

Note: Actual official high and low records may vary slightly from our data, if they occured in-between our weather recording intervals... More about our weather records

38°22'01.4"N, 20°43'02.5"E Weather History for the Previous 24 Hours

Scroll right to see more
 ConditionsComfort  
Time TempWeatherWind HumidityBarometerVisibility
1:50 am
Wed, Jun 29
73 °FClear.No wind94%29.95 "Hg10 mi
12:50 am77 °FClear.No wind89%29.95 "Hg10 mi
11:50 pm
Tue, Jun 28
79 °FClear.6 mph89%29.95 "Hg10 mi
10:50 pm79 °FClear.5 mph89%29.95 "Hg10 mi
9:50 pm79 °FClear.3 mph89%29.89 "Hg10 mi
8:50 pm81 °FSunny.8 mph74%29.89 "Hg10 mi
8:20 pm82 °FSunny.7 mph70%29.89 "Hg10 mi
7:20 pm82 °FSunny.13 mph74%29.89 "Hg10 mi
6:50 pm84 °FSunny.13 mph74%29.92 "Hg10 mi
6:20 pm84 °FSunny.13 mph70%29.92 "Hg10 mi
5:50 pm86 °FSunny.13 mph66%29.92 "Hg10 mi
5:20 pm86 °FSunny.13 mph66%29.95 "Hg10 mi
4:50 pm86 °FSunny.14 mph70%29.95 "Hg10 mi
4:20 pm86 °FSunny.16 mph70%29.95 "Hg10 mi
3:50 pm88 °FSunny.14 mph66%29.95 "Hg10 mi
2:50 pm88 °FSunny.15 mph59%29.95 "Hg10 mi
2:20 pm88 °FSunny.15 mph59%29.95 "Hg10 mi
1:50 pm88 °FPassing clouds.16 mph59%29.95 "HgN/A
1:20 pm88 °FPassing clouds.15 mph59%29.95 "HgN/A
12:50 pm88 °FSunny.12 mph52%29.95 "Hg10 mi
12:20 pm90 °FSunny.7 mph55%29.95 "Hg10 mi
11:50 am90 °FSunny.No wind55%29.95 "Hg10 mi
10:20 am86 °FSunny.7 mph66%29.95 "Hg10 mi
9:20 am84 °FSunny.3 mph62%29.95 "Hg10 mi
8:50 am82 °FSunny.5 mph66%29.95 "Hg10 mi
8:20 am81 °FSunny.5 mph70%29.95 "Hg10 mi
7:50 am79 °FSunny.No wind84%29.95 "Hg10 mi
7:20 am75 °FSunny.No wind83%29.95 "Hg10 mi
6:50 am75 °FSunny.5 mph83%29.95 "Hg10 mi
6:20 am72 °FSunny.8 mph94%29.95 "Hg10 mi
5:50 am72 °FClear.5 mph88%29.92 "Hg10 mi
4:50 am70 °FClear.No wind94%29.92 "Hg10 mi
Weather by CustomWeather, © 2022

See weather overview